Time;durP1;ratioP1;P1;durP2;ratioP2;P2;SDS_P1;SDS_P2;PMS_P1;PMS_P2;Temp;Humidity;BMP_temperature;BMP_pressure;BME280_temperature;BME280_humidity;BME280_pressure;Samples;Min_cycle;Max_cycle;Signal;HPM_P1;HPM_P2
2021/09/11 00:02:03;;;;;;;15.73;6.55;;;;;;;17.21;91.53;101524.84;5038420;28;20098;-69
2021/09/11 00:04:31;;;;;;;12.10;5.57;;;;;;;17.26;91.76;101517.41;5039473;28;20057;-65
2021/09/11 00:06:59;;;;;;;14.38;6.55;;;;;;;17.25;91.75;101519.25;5038745;28;20060;-65
2021/09/11 00:09:28;;;;;;;13.63;6.03;;;;;;;17.29;91.92;101515.41;5038050;28;20053;-65
2021/09/11 00:11:56;;;;;;;16.65;6.70;;;;;;;17.27;91.90;101524.56;5039809;28;20642;-65
2021/09/11 00:14:23;;;;;;;15.38;6.60;;;;;;;17.27;92.05;101520.03;5037571;28;20049;-65
2021/09/11 00:16:51;;;;;;;15.45;7.70;;;;;;;17.27;91.89;101517.31;5040019;28;20063;-65
2021/09/11 00:19:19;;;;;;;16.00;7.45;;;;;;;17.30;91.97;101524.41;5036019;28;20217;-68
2021/09/11 00:21:47;;;;;;;17.23;7.95;;;;;;;17.28;92.15;101518.19;5040425;28;20136;-68
2021/09/11 00:24:14;;;;;;;16.52;8.07;;;;;;;17.26;92.22;101528.19;5038013;28;20060;-68
2021/09/11 00:26:44;;;;;;;17.83;7.50;;;;;;;17.24;92.42;101527.41;5041198;28;20048;-70
2021/09/11 00:29:11;;;;;;;16.13;8.27;;;;;;;17.22;92.32;101524.78;5037911;28;20559;-68
2021/09/11 00:31:39;;;;;;;18.70;8.07;;;;;;;17.17;92.32;101521.44;5035915;28;20041;-68
2021/09/11 00:34:07;;;;;;;15.70;8.57;;;;;;;17.11;92.74;101521.72;5039222;28;20049;-69
2021/09/11 00:36:35;;;;;;;17.85;8.50;;;;;;;17.06;92.61;101521.97;5036991;28;20076;-68
2021/09/11 00:39:02;;;;;;;17.50;7.65;;;;;;;17.05;92.50;101519.34;5038422;28;20053;-68
2021/09/11 00:41:30;;;;;;;19.85;8.98;;;;;;;17.02;93.29;101520.34;5039673;28;20057;-64
2021/09/11 00:43:59;;;;;;;17.80;9.10;;;;;;;16.97;93.51;101519.69;5038135;28;20088;-64
2021/09/11 00:46:28;;;;;;;15.70;7.90;;;;;;;16.94;93.88;101520.72;5039822;28;20086;-64
2021/09/11 00:48:56;;;;;;;16.58;7.97;;;;;;;16.92;93.24;101513.66;5037391;28;20124;-64
2021/09/11 00:51:24;;;;;;;16.58;8.07;;;;;;;16.92;93.74;101513.66;5038799;28;20119;-64
2021/09/11 00:53:51;;;;;;;17.38;7.75;;;;;;;16.92;93.88;101525.28;5039919;28;20076;-64
2021/09/11 00:56:19;;;;;;;14.43;7.03;;;;;;;16.93;93.84;101516.28;5038262;28;20316;-65
2021/09/11 00:58:49;;;;;;;16.08;7.80;;;;;;;16.94;93.46;101512.66;5037478;28;20076;-64
2021/09/11 01:01:18;;;;;;;14.80;7.50;;;;;;;16.98;93.91;101510.66;5036637;28;20049;-68
2021/09/11 01:03:46;;;;;;;13.32;7.78;;;;;;;16.97;93.85;101523.28;5040228;28;20053;-68
2021/09/11 01:06:14;;;;;;;13.68;7.22;;;;;;;16.99;93.87;101525.88;5037688;28;20044;-67
2021/09/11 01:08:43;;;;;;;15.57;7.63;;;;;;;17.04;93.78;101522.97;5036584;28;20549;-68
2021/09/11 01:11:12;;;;;;;17.50;7.95;;;;;;;17.04;93.56;101518.44;5039649;28;20048;-68
2021/09/11 01:13:40;;;;;;;15.50;7.20;;;;;;;17.05;93.65;101520.19;5037125;28;20197;-68
2021/09/11 01:16:09;;;;;;;17.42;8.32;;;;;;;17.07;93.44;101518.28;5036654;28;20061;-68
2021/09/11 01:18:38;;;;;;;13.48;6.70;;;;;;;17.08;93.29;101520.06;5038374;28;20136;-68
2021/09/11 01:21:07;;;;;;;13.25;7.05;;;;;;;17.08;93.35;101514.66;5035859;28;20055;-68
2021/09/11 01:23:34;;;;;;;16.88;7.80;;;;;;;17.08;93.94;101516.50;5039494;28;20095;-68
2021/09/11 01:26:04;;;;;;;17.60;8.10;;;;;;;17.10;93.14;101520.84;5033338;28;20148;-68
2021/09/11 01:28:31;;;;;;;15.85;8.13;;;;;;;17.09;93.49;101516.41;5034288;28;20092;-68
2021/09/11 01:30:59;;;;;;;19.33;8.73;;;;;;;17.12;93.42;101523.47;5039306;28;20555;-68
2021/09/11 01:33:27;;;;;;;15.40;8.43;;;;;;;17.10;93.79;101520.84;5041247;28;20079;-68
2021/09/11 01:35:55;;;;;;;18.52;8.98;;;;;;;17.09;94.75;101529.88;5039935;28;20193;-68
2021/09/11 01:38:23;;;;;;;16.75;8.68;;;;;;;17.10;94.64;101522.69;5038295;28;20132;-68
2021/09/11 01:40:51;;;;;;;17.15;8.63;;;;;;;17.12;94.08;101531.56;5034838;28;21482;-68
2021/09/11 01:43:28;;;;;;;16.02;8.48;;;;;;;17.09;94.20;101524.47;5038262;28;20049;-68
2021/09/11 01:45:56;;;;;;;19.20;10.00;;;;;;;17.06;93.97;101526.47;5037773;28;20052;-64
2021/09/11 01:48:25;;;;;;;18.48;8.85;;;;;;;17.08;94.05;101520.06;5040481;28;20118;-64
2021/09/11 01:50:53;;;;;;;20.75;9.60;;;;;;;17.11;93.96;101524.41;5036910;28;20488;-65
2021/09/11 01:53:21;;;;;;;22.13;10.10;;;;;;;17.08;94.42;101524.59;5038026;28;20049;-64
2021/09/11 01:55:49;;;;;;;18.65;9.23;;;;;;;17.09;94.23;101524.47;5036510;28;20131;-64
2021/09/11 01:58:17;;;;;;;22.02;9.82;;;;;;;17.04;94.74;101521.13;5037512;28;20137;-64
2021/09/11 02:00:46;;;;;;;19.42;9.90;;;;;;;17.06;94.84;101524.66;5039170;28;20436;-64
2021/09/11 02:03:14;;;;;;;21.60;10.38;;;;;;;17.05;94.88;101524.72;5038777;28;20048;-64
2021/09/11 02:05:42;;;;;;;20.45;9.90;;;;;;;17.03;95.09;101527.50;5036307;28;20049;-64
2021/09/11 02:08:10;;;;;;;21.58;11.45;;;;;;;17.01;95.04;101521.31;5037604;28;20095;-64
2021/09/11 02:10:38;;;;;;;26.95;12.35;;;;;;;17.00;95.39;101527.63;5037904;28;20430;-64
2021/09/11 02:13:06;;;;;;;21.88;11.30;;;;;;;16.99;96.70;101518.69;5039416;28;20081;-64
2021/09/11 02:15:33;;;;;;;19.50;10.68;;;;;;;17.01;97.41;101528.50;5040170;28;20091;-64
2021/09/11 02:18:03;;;;;;;27.20;11.18;;;;;;;16.97;97.95;101533.16;5036563;28;20110;-64
2021/09/11 02:20:30;;;;;;;22.05;11.45;;;;;;;16.95;98.16;101527.84;5035704;28;20140;-64
2021/09/11 02:22:58;;;;;;;22.63;11.50;;;;;;;16.90;98.81;101527.19;5033212;28;20053;-64
2021/09/11 02:25:26;;;;;;;23.23;10.23;;;;;;;16.95;98.75;101522.47;5034675;28;20509;-64
2021/09/11 02:27:54;;;;;;;27.38;12.05;;;;;;;16.86;99.10;101522.06;5035287;28;20153;-65
2021/09/11 02:30:22;;;;;;;25.85;10.93;;;;;;;16.86;99.93;101528.31;5039056;28;20160;-65
2021/09/11 02:32:49;;;;;;;22.25;11.00;;;;;;;16.84;100.00;101522.13;5034968;28;20310;-65
2021/09/11 02:35:19;;;;;;;24.35;12.30;;;;;;;16.81;100.00;101524.91;5036154;28;20391;-65
2021/09/11 02:37:47;;;;;;;30.05;12.57;;;;;;;16.73;100.00;101522.56;5033858;28;20076;-68
2021/09/11 02:40:15;;;;;;;26.27;11.77;;;;;;;16.73;100.00;101516.31;5036755;28;20449;-68
2021/09/11 02:42:42;;;;;;;22.35;10.52;;;;;;;16.75;100.00;101522.50;5034563;28;20078;-69
2021/09/11 02:45:11;;;;;;;21.88;11.10;;;;;;;16.78;100.00;101525.06;5031323;28;20052;-68
2021/09/11 02:47:38;;;;;;;22.70;11.07;;;;;;;16.74;100.00;101516.25;5038742;28;20187;-68
2021/09/11 02:50:07;;;;;;;24.17;11.10;;;;;;;16.79;100.00;101522.28;5035732;28;20059;-68
2021/09/11 02:52:36;;;;;;;26.65;11.82;;;;;;;16.72;100.00;101518.16;5037440;28;20057;-65
2021/09/11 02:55:05;;;;;;;20.25;10.30;;;;;;;16.76;100.00;101524.25;5038620;28;20049;-65
2021/09/11 02:57:33;;;;;;;22.27;10.40;;;;;;;16.72;100.00;101517.25;5037497;28;21009;-65
2021/09/11 03:00:01;;;;;;;20.48;11.05;;;;;;;16.75;100.00;101511.72;5037094;28;20049;-64
2021/09/11 03:02:29;;;;;;;23.85;11.85;;;;;;;16.70;100.00;101511.97;5032925;28;20083;-65
2021/09/11 03:04:57;;;;;;;23.30;11.00;;;;;;;16.77;100.00;101513.41;5038031;28;20208;-65
2021/09/11 03:07:24;;;;;;;27.65;12.32;;;;;;;16.74;100.00;101510.00;5035773;28;20336;-65
2021/09/11 03:09:53;;;;;;;19.83;10.82;;;;;;;16.77;100.00;101510.72;5034829;28;20080;-65
2021/09/11 03:12:21;;;;;;;19.08;9.70;;;;;;;16.76;100.00;101506.25;5037681;28;20060;-65
2021/09/11 03:14:49;;;;;;;23.42;11.18;;;;;;;16.76;100.00;101517.03;5032302;28;20056;-65
2021/09/11 03:17:17;;;;;;;23.30;11.55;;;;;;;16.73;100.00;101517.19;5036363;28;20045;-65
2021/09/11 03:19:44;;;;;;;28.10;11.88;;;;;;;16.75;100.00;101512.63;5035342;28;20050;-65
2021/09/11 03:22:12;;;;;;;21.55;11.43;;;;;;;16.76;100.00;101525.13;5035441;28;20501;-68
2021/09/11 03:24:40;;;;;;;23.73;10.85;;;;;;;16.76;100.00;101519.75;5037827;28;20657;-68
2021/09/11 03:27:09;;;;;;;21.88;11.23;;;;;;;16.76;100.00;101522.44;5034561;28;20155;-68
2021/09/11 03:29:37;;;;;;;25.42;11.50;;;;;;;16.78;100.00;101525.94;5037472;28;20060;-68
2021/09/11 03:32:06;;;;;;;21.35;11.82;;;;;;;16.75;100.00;101515.31;5035409;28;20187;-68
2021/09/11 03:34:34;;;;;;;25.90;11.93;;;;;;;16.74;100.00;101518.94;5036085;28;20674;-65
2021/09/11 03:37:02;;;;;;;20.77;11.20;;;;;;;16.76;100.00;101516.19;5034576;28;20483;-65
2021/09/11 03:39:30;;;;;;;22.40;11.98;;;;;;;16.76;100.00;101516.19;5034326;28;20079;-65
2021/09/11 03:41:58;;;;;;;23.88;11.63;;;;;;;16.77;100.00;101521.50;5036299;28;20099;-65
2021/09/11 03:44:27;;;;;;;25.80;12.27;;;;;;;16.77;100.00;101520.59;5036688;28;20041;-65
2021/09/11 03:46:55;;;;;;;23.77;12.30;;;;;;;16.75;100.00;101518.00;5037235;28;20073;-65
2021/09/11 03:49:23;;;;;;;30.83;14.70;;;;;;;16.73;100.00;101522.56;5032417;28;20053;-65
2021/09/11 03:51:51;;;;;;;21.00;12.40;;;;;;;16.80;100.00;101521.38;5035250;28;20080;-65
2021/09/11 03:54:19;;;;;;;26.27;13.20;;;;;;;16.77;100.00;101531.38;5036288;28;20053;-65
2021/09/11 03:56:46;;;;;;;30.23;15.13;;;;;;;16.73;100.00;101525.28;5037063;28;20072;-65
2021/09/11 03:59:17;;;;;;;27.58;13.50;;;;;;;16.74;100.00;101528.84;5035069;28;20078;-65
2021/09/11 04:01:46;;;;;;;27.48;15.73;;;;;;;16.65;100.00;101524.75;5034752;28;20077;-65
2021/09/11 04:04:14;;;;;;;26.38;14.63;;;;;;;16.69;100.00;101526.38;5038774;28;20048;-65
2021/09/11 04:06:42;;;;;;;29.00;14.32;;;;;;;16.64;100.00;101531.09;5036027;28;20131;-65
2021/09/11 04:09:09;;;;;;;30.23;15.10;;;;;;;16.66;100.00;101525.66;5035435;28;20532;-65
2021/09/11 04:11:37;;;;;;;30.45;16.83;;;;;;;16.63;100.00;101521.25;5035840;28;20049;-65
2021/09/11 04:14:05;;;;;;;29.38;16.73;;;;;;;16.62;100.00;101520.38;5039659;28;20041;-65
2021/09/11 04:16:33;;;;;;;31.60;16.33;;;;;;;16.65;100.00;101522.06;5040628;28;20071;-65
2021/09/11 04:19:02;;;;;;;25.05;15.00;;;;;;;16.65;100.00;101521.19;5038717;28;20057;-65
2021/09/11 04:21:30;;;;;;;26.05;13.85;;;;;;;16.65;100.00;101519.34;5039005;28;20463;-65
2021/09/11 04:23:58;;;;;;;29.20;14.32;;;;;;;16.61;100.00;101517.75;5035992;28;20444;-65
2021/09/11 04:26:25;;;;;;;26.15;14.18;;;;;;;16.66;100.00;101531.03;5039568;28;20068;-66
2021/09/11 04:28:53;;;;;;;26.27;14.15;;;;;;;16.60;100.00;101526.78;5042276;28;20129;-65
2021/09/11 04:31:21;;;;;;;25.63;13.90;;;;;;;16.61;100.00;101532.09;5036735;28;20053;-69
2021/09/11 04:33:49;;;;;;;25.17;13.18;;;;;;;16.59;100.00;101533.13;5036512;28;20076;-70
2021/09/11 04:36:18;;;;;;;27.90;14.35;;;;;;;16.59;100.00;101522.34;5039842;28;20316;-70
2021/09/11 04:38:46;;;;;;;22.65;12.57;;;;;;;16.63;100.00;101529.34;5037761;28;20056;-70
2021/09/11 04:41:16;;;;;;;23.80;13.07;;;;;;;16.65;100.00;101527.44;5040452;28;20052;-70
2021/09/11 04:43:45;;;;;;;23.55;13.38;;;;;;;16.66;100.00;101523.81;5038993;28;20048;-69
2021/09/11 04:46:12;;;;;;;28.65;13.88;;;;;;;16.62;100.00;101528.47;5039439;28;20052;-70
2021/09/11 04:48:40;;;;;;;28.55;12.77;;;;;;;16.62;100.00;101523.09;5037389;28;20053;-65
2021/09/11 04:51:08;;;;;;;26.25;13.35;;;;;;;16.65;100.00;101523.88;5039415;28;20059;-66
2021/09/11 04:53:37;;;;;;;28.52;13.10;;;;;;;16.63;100.00;101534.72;5037721;28;20405;-66
2021/09/11 04:56:05;;;;;;;26.75;12.68;;;;;;;16.62;100.00;101525.78;5036525;28;20136;-65
2021/09/11 04:58:35;;;;;;;30.50;13.85;;;;;;;16.64;100.00;101524.84;5040336;28;20049;-65
2021/09/11 05:01:03;;;;;;;23.27;13.07;;;;;;;16.62;100.00;101535.69;5039892;28;20076;-67
2021/09/11 05:03:31;;;;;;;29.25;14.50;;;;;;;16.61;100.00;101532.09;5038179;28;20095;-67
2021/09/11 05:05:59;;;;;;;24.75;13.57;;;;;;;16.68;100.00;101538.06;5036516;28;20049;-67
2021/09/11 05:08:27;;;;;;;24.45;13.70;;;;;;;16.63;100.00;101532.03;5038829;28;20081;-68
2021/09/11 05:10:57;;;;;;;30.40;15.73;;;;;;;16.59;100.00;101535.81;5039022;28;20041;-66
2021/09/11 05:13:24;;;;;;;30.00;15.90;;;;;;;16.63;100.00;101534.72;5038018;28;20052;-66
2021/09/11 05:15:52;;;;;;;29.05;15.88;;;;;;;16.63;100.00;101534.72;5036425;28;20138;-66
2021/09/11 05:18:20;;;;;;;33.05;18.27;;;;;;;16.57;100.00;101529.66;5038161;28;20054;-66
2021/09/11 05:20:48;;;;;;;33.75;17.42;;;;;;;16.64;100.00;101541.88;5038545;28;20084;-66
2021/09/11 05:23:16;;;;;;;32.70;16.23;;;;;;;16.65;100.00;101543.59;5037107;28;20074;-66
2021/09/11 05:25:43;;;;;;;28.23;15.90;;;;;;;16.61;100.00;101539.31;5036757;28;20072;-66
2021/09/11 05:28:13;;;;;;;30.92;17.08;;;;;;;16.64;100.00;101547.25;5036956;28;20474;-66
2021/09/11 05:30:41;;;;;;;30.13;15.77;;;;;;;16.64;100.00;101547.25;5040045;28;20052;-66
2021/09/11 05:33:09;;;;;;;32.10;17.08;;;;;;;16.60;100.00;101542.94;5037836;28;20235;-66
2021/09/11 05:35:41;;;;;;;36.25;17.25;;;;;;;16.58;100.00;101542.16;5037179;28;20473;-66
2021/09/11 05:38:09;;;;;;;33.90;16.08;;;;;;;16.61;100.00;101542.00;5038552;28;20871;-66
2021/09/11 05:40:36;;;;;;;34.20;16.90;;;;;;;16.67;100.00;101546.22;5035792;28;20103;-66
2021/09/11 05:43:04;;;;;;;31.17;16.23;;;;;;;16.62;100.00;101546.47;5039034;28;20052;-66
2021/09/11 05:45:33;;;;;;;32.45;16.52;;;;;;;16.62;100.00;101551.84;5038987;28;20083;-66
2021/09/11 05:48:01;;;;;;;28.30;16.10;;;;;;;16.64;100.00;101552.66;5035693;28;20051;-66
2021/09/11 05:50:29;;;;;;;36.13;17.13;;;;;;;16.63;100.00;101556.28;5038467;28;20085;-66
2021/09/11 05:52:57;;;;;;;33.83;17.17;;;;;;;16.66;100.00;101563.38;5036621;28;20144;-67
2021/09/11 05:55:25;;;;;;;33.75;17.95;;;;;;;16.65;100.00;101567.00;5036604;28;20109;-65
2021/09/11 05:57:53;;;;;;;33.25;16.73;;;;;;;16.68;100.00;101570.41;5036710;28;20969;-66
2021/09/11 06:00:20;;;;;;;36.20;16.42;;;;;;;16.70;100.00;101576.63;5039205;28;20072;-65
2021/09/11 06:02:50;;;;;;;34.45;16.17;;;;;;;16.68;100.00;101577.63;5038731;28;20095;-65
2021/09/11 06:05:18;;;;;;;39.92;17.67;;;;;;;16.72;100.00;101576.53;5033913;28;20135;-65
2021/09/11 06:07:46;;;;;;;32.10;16.58;;;;;;;16.76;100.00;101575.47;5039049;28;20137;-65
2021/09/11 06:10:14;;;;;;;41.67;19.88;;;;;;;16.76;100.00;101578.16;5036003;28;20051;-66
2021/09/11 06:12:42;;;;;;;33.53;16.48;;;;;;;16.74;100.00;101583.63;5037547;28;20081;-65
2021/09/11 06:15:13;;;;;;;38.20;17.23;;;;;;;16.79;100.00;101586.09;5038591;28;20099;-65
2021/09/11 06:17:41;;;;;;;31.73;15.98;;;;;;;16.81;100.00;101590.47;5032237;28;20134;-65
2021/09/11 06:20:13;;;;;;;34.05;16.42;;;;;;;16.87;100.00;101592.03;5038198;28;20053;-65
2021/09/11 06:22:41;;;;;;;28.67;15.65;;;;;;;16.88;100.00;101599.19;5036069;28;20049;-65
2021/09/11 06:25:09;;;;;;;30.60;16.05;;;;;;;16.87;100.00;101592.03;5040068;28;20060;-69
2021/09/11 06:27:37;;;;;;;32.72;14.55;;;;;;;16.87;100.00;101592.03;5035202;28;20118;-69
2021/09/11 06:30:06;;;;;;;33.58;15.35;;;;;;;16.94;100.00;101595.31;5038390;28;20140;-69
2021/09/11 06:32:34;;;;;;;28.95;14.77;;;;;;;16.91;100.00;101599.03;5036392;28;20069;-65
2021/09/11 06:35:02;;;;;;;30.35;15.18;;;;;;;16.97;100.00;101596.06;5032392;28;20052;-65
2021/09/11 06:37:31;;;;;;;30.52;15.43;;;;;;;16.99;100.00;101595.97;5039212;28;20045;-64
2021/09/11 06:39:59;;;;;;;33.47;16.38;;;;;;;17.01;100.00;101595.91;5033316;28;20049;-64
2021/09/11 06:42:27;;;;;;;30.63;15.48;;;;;;;17.03;100.00;101594.03;5033693;28;20162;-64
2021/09/11 06:44:55;;;;;;;27.23;15.65;;;;;;;17.03;100.00;101602.13;5036936;28;20819;-65
2021/09/11 06:47:23;;;;;;;30.50;15.82;;;;;;;17.05;100.00;101602.91;5037665;28;20051;-68
2021/09/11 06:49:51;;;;;;;37.45;16.90;;;;;;;17.05;100.00;101605.63;5038774;28;20053;-68
2021/09/11 06:52:20;;;;;;;32.72;16.92;;;;;;;17.07;100.00;101603.72;5034158;28;20045;-70
2021/09/11 06:54:49;;;;;;;35.83;16.67;;;;;;;17.10;100.00;101608.97;5037511;28;20144;-69
2021/09/11 06:57:17;;;;;;;30.48;16.90;;;;;;;17.12;100.00;101604.38;5036499;28;20574;-69
2021/09/11 06:59:45;;;;;;;35.75;16.75;;;;;;;17.16;100.00;101604.16;5037072;28;20057;-69
2021/09/11 07:02:12;;;;;;;34.00;15.93;;;;;;;17.16;100.00;101611.34;5039931;28;20451;-69
2021/09/11 07:04:41;;;;;;;28.92;16.05;;;;;;;17.18;100.00;101609.47;5034626;28;20087;-69
2021/09/11 07:07:09;;;;;;;31.95;16.23;;;;;;;17.20;100.00;101609.38;5037257;28;20166;-69
2021/09/11 07:09:37;;;;;;;34.15;14.88;;;;;;;17.21;100.00;101622.78;5034817;28;20057;-69
2021/09/11 07:12:06;;;;;;;35.60;15.85;;;;;;;17.23;100.00;101623.63;5036157;28;20053;-69
2021/09/11 07:14:35;;;;;;;28.92;15.20;;;;;;;17.27;100.00;101618.94;5035662;28;20136;-68
2021/09/11 07:17:02;;;;;;;27.13;14.60;;;;;;;17.28;100.00;101623.38;5036633;28;20149;-70
2021/09/11 07:19:30;;;;;;;33.10;15.18;;;;;;;17.32;100.00;101619.59;5039401;28;20156;-70
2021/09/11 07:21:58;;;;;;;30.40;14.93;;;;;;;17.29;100.00;101623.31;5035493;28;20057;-70
2021/09/11 07:24:26;;;;;;;29.05;13.73;;;;;;;17.36;100.00;101626.59;5035438;28;20371;-70
2021/09/11 07:26:54;;;;;;;40.67;15.52;;;;;;;17.39;100.00;101626.44;5036137;28;20045;-70
2021/09/11 07:29:25;;;;;;;29.75;14.40;;;;;;;17.44;100.00;101632.50;5033556;28;20130;-70
2021/09/11 07:31:53;;;;;;;29.15;14.95;;;;;;;17.43;100.00;101633.44;5036251;28;20044;-70
2021/09/11 07:34:21;;;;;;;33.40;14.82;;;;;;;17.45;100.00;101638.75;5034269;28;20099;-70
2021/09/11 07:36:49;;;;;;;28.15;15.23;;;;;;;17.47;99.98;101640.44;5035753;28;20045;-69
2021/09/11 07:39:16;;;;;;;34.65;15.73;;;;;;;17.49;99.42;101643.06;5033288;28;20119;-69
2021/09/11 07:41:44;;;;;;;29.05;14.88;;;;;;;17.53;99.64;101642.81;5037567;28;20135;-69
2021/09/11 07:44:12;;;;;;;32.72;15.90;;;;;;;17.58;99.90;101637.22;5038406;28;20083;-69
2021/09/11 07:46:41;;;;;;;27.45;15.23;;;;;;;17.55;99.28;101643.66;5036435;28;20175;-69
2021/09/11 07:49:09;;;;;;;29.35;14.98;;;;;;;17.58;99.42;101644.44;5039212;28;20159;-69
2021/09/11 07:51:37;;;;;;;26.73;14.20;;;;;;;17.65;99.48;101646.75;5037568;28;20290;-69
2021/09/11 07:54:04;;;;;;;31.77;16.50;;;;;;;17.66;99.00;101642.25;5041147;28;20052;-70
2021/09/11 07:56:32;;;;;;;34.20;17.58;;;;;;;17.70;99.00;101650.09;5040131;28;20098;-69
2021/09/11 07:59:00;;;;;;;33.03;16.40;;;;;;;17.65;99.23;101648.59;5039782;28;20196;-69
2021/09/11 08:01:28;;;;;;;32.15;15.77;;;;;;;17.69;98.94;101652.88;5040030;28;20549;-69
2021/09/11 08:03:58;;;;;;;33.85;16.85;;;;;;;17.63;99.08;101653.19;5038673;28;20056;-69
2021/09/11 08:06:26;;;;;;;35.13;16.17;;;;;;;17.67;99.33;101661.06;5039166;28;20059;-69
2021/09/11 08:08:53;;;;;;;38.22;20.33;;;;;;;17.74;99.09;101659.81;5036404;28;20098;-69
2021/09/11 08:11:21;;;;;;;44.75;21.77;;;;;;;17.79;98.58;101662.25;5038490;28;20048;-70
2021/09/11 08:13:50;;;;;;;50.38;22.52;;;;;;;17.84;98.34;101664.75;5039353;28;20061;-66
2021/09/11 08:16:18;;;;;;;40.42;21.23;;;;;;;17.89;98.21;101663.63;5037522;28;20092;-66
2021/09/11 08:18:46;;;;;;;41.80;22.48;;;;;;;17.94;97.86;101663.38;5040867;28;20063;-69
2021/09/11 08:21:15;;;;;;;36.53;18.85;;;;;;;18.05;97.07;101669.09;5037041;28;20112;-69
2021/09/11 08:23:43;;;;;;;38.75;18.27;;;;;;;18.16;97.01;101665.84;5041199;28;20060;-68
2021/09/11 08:26:14;;;;;;;32.63;17.23;;;;;;;18.31;96.94;101658.81;5039900;28;20045;-69
2021/09/11 08:28:42;;;;;;;36.35;18.05;;;;;;;18.45;96.14;101664.34;5038045;28;20057;-68
2021/09/11 08:31:09;;;;;;;32.38;16.65;;;;;;;18.51;95.52;101671.28;5037484;28;20064;-69
2021/09/11 08:33:38;;;;;;;34.13;18.13;;;;;;;18.50;95.06;101680.31;5038299;28;20049;-69
2021/09/11 08:36:06;;;;;;;38.80;18.42;;;;;;;18.47;94.91;101681.38;5042047;28;20590;-69
2021/09/11 08:38:35;;;;;;;37.28;19.80;;;;;;;18.69;94.91;101684.78;5037529;28;20079;-68
2021/09/11 08:41:06;;;;;;;35.67;18.92;;;;;;;18.75;94.47;101696.13;5039774;28;20052;-68
2021/09/11 08:43:35;;;;;;;35.80;18.58;;;;;;;18.67;94.37;101692.97;5037566;28;20167;-68
2021/09/11 08:46:03;;;;;;;31.73;16.17;;;;;;;18.76;94.56;101697.91;5037478;28;20053;-69
2021/09/11 08:48:31;;;;;;;31.65;16.35;;;;;;;18.76;94.00;101695.19;5040632;28;20405;-68
2021/09/11 08:50:59;;;;;;;30.10;17.23;;;;;;;18.69;93.65;101693.75;5035832;28;20480;-68
2021/09/11 08:53:30;;;;;;;31.02;16.15;;;;;;;18.74;93.79;101696.22;5041847;28;20055;-68
2021/09/11 08:56:00;;;;;;;27.05;15.80;;;;;;;18.88;93.14;101690.09;5038654;28;20083;-69
2021/09/11 08:58:27;;;;;;;31.88;16.70;;;;;;;18.93;92.46;101693.44;5034350;28;20140;-68
2021/09/11 09:01:01;;;;;;;31.58;16.83;;;;;;;18.97;92.36;101693.19;5039433;28;20080;-69
2021/09/11 09:03:35;;;;;;;29.60;15.73;;;;;;;19.03;92.06;101710.91;5037545;28;20121;-69
2021/09/11 09:06:23;;;;;;;30.08;15.45;;;;;;;18.99;92.22;101702.09;5038728;28;20078;-69
2021/09/11 09:08:53;;;;;;;28.60;14.50;;;;;;;19.47;90.83;101707.59;5039169;28;20052;-69
2021/09/11 09:11:28;;;;;;;28.45;15.35;;;;;;;19.26;91.54;101712.38;5038221;28;20061;-68
2021/09/11 09:14:00;;;;;;;30.13;16.15;;;;;;;19.18;91.88;101715.47;5035355;28;20053;-69
2021/09/11 09:16:30;;;;;;;26.87;15.47;;;;;;;18.93;95.51;101718.63;5038337;28;20049;-69
2021/09/11 09:18:59;;;;;;;29.48;15.68;;;;;;;18.97;96.89;101716.66;5036040;28;20064;-69
2021/09/11 09:21:29;;;;;;;27.77;15.55;;;;;;;18.94;98.18;101712.28;5036558;28;20624;-69
2021/09/11 09:23:58;;;;;;;26.98;15.77;;;;;;;19.04;97.49;101712.66;5037490;28;20053;-69
2021/09/11 09:26:28;;;;;;;32.45;16.92;;;;;;;19.10;97.45;101712.31;5037508;28;20303;-69
2021/09/11 09:29:04;;;;;;;29.63;16.30;;;;;;;19.11;97.36;101719.50;5036809;28;20053;-70
2021/09/11 09:31:33;;;;;;;31.00;16.75;;;;;;;19.06;96.56;101713.44;5034226;28;20567;-70
2021/09/11 09:34:01;;;;;;;29.20;17.00;;;;;;;19.20;96.49;101708.16;5040114;28;20053;-69
2021/09/11 09:36:41;;;;;;;31.20;15.75;;;;;;;19.38;94.20;101711.69;5037871;28;20044;-69
2021/09/11 09:39:11;;;;;;;31.45;17.73;;;;;;;19.55;94.73;101708.03;5038160;28;20060;-69
2021/09/11 09:41:46;;;;;;;29.38;16.35;;;;;;;19.50;93.10;101703.88;5038577;28;20149;-69
2021/09/11 09:44:15;;;;;;;30.25;16.55;;;;;;;19.56;93.63;101706.19;5037795;28;20049;-68
2021/09/11 09:46:48;;;;;;;28.40;16.90;;;;;;;19.60;92.39;101705.94;5038942;28;20048;-69
2021/09/11 09:49:21;;;;;;;26.77;14.95;;;;;;;19.58;92.21;101705.16;5031956;28;20486;-68
2021/09/11 09:51:50;;;;;;;30.17;15.82;;;;;;;19.87;92.80;101704.50;5037393;28;20559;-69
2021/09/11 09:54:19;;;;;;;24.63;14.98;;;;;;;19.82;91.70;101707.47;5035641;28;20448;-69
2021/09/11 09:56:48;;;;;;;24.70;14.45;;;;;;;19.78;90.94;101705.91;5039307;28;20106;-68
2021/09/11 09:59:18;;;;;;;27.63;13.85;;;;;;;19.98;90.83;101710.16;5033502;28;20045;-68
2021/09/11 10:01:49;;;;;;;25.48;14.02;;;;;;;20.03;90.40;101715.31;5036030;28;20473;-68
2021/09/11 10:04:20;;;;;;;27.95;15.98;;;;;;;19.80;90.67;101709.38;5036725;28;20102;-69
2021/09/11 10:06:51;;;;;;;26.75;15.50;;;;;;;19.87;91.67;101708.09;5037037;28;20053;-68
2021/09/11 10:09:23;;;;;;;25.10;16.13;;;;;;;20.01;90.97;101711.84;5037697;28;20115;-68
2021/09/11 10:11:53;;;;;;;26.67;15.77;;;;;;;20.05;91.61;101713.41;5036689;28;20049;-69
2021/09/11 10:14:23;;;;;;;25.85;15.30;;;;;;;20.04;90.02;101709.81;5038173;28;20057;-68
2021/09/11 10:16:58;;;;;;;26.45;15.57;;;;;;;20.01;89.62;101704.59;5036780;28;20132;-69
2021/09/11 10:19:28;;;;;;;24.42;14.10;;;;;;;19.87;90.38;101693.66;5038207;28;21744;-69
2021/09/11 10:22:08;;;;;;;25.50;14.60;;;;;;;19.91;90.04;101706.06;5038086;28;20061;-69
2021/09/11 10:24:37;;;;;;;23.77;14.43;;;;;;;19.81;91.00;101702.16;5038841;28;20083;-69
2021/09/11 10:27:11;;;;;;;23.30;14.68;;;;;;;19.83;90.90;101701.09;5034935;28;20543;-66
2021/09/11 10:30:01;;;;;;;20.83;13.10;;;;;;;20.03;90.72;101712.63;5037057;28;20636;-66
2021/09/11 10:32:41;;;;;;;21.77;11.88;;;;;;;20.02;90.82;101700.88;5036080;28;20498;-66
2021/09/11 10:35:11;;;;;;;24.90;12.65;;;;;;;19.93;89.96;101706.84;5033747;28;20061;-67
2021/09/11 10:37:44;;;;;;;21.00;12.38;;;;;;;19.94;91.10;101700.50;5035338;28;20045;-65
2021/09/11 10:40:33;;;;;;;24.38;13.07;;;;;;;19.91;90.68;101698.81;5034907;28;20115;-66
2021/09/11 10:43:17;;;;;;;23.42;12.23;;;;;;;19.91;91.01;101700.66;5032435;28;20067;-66
2021/09/11 10:45:48;;;;;;;21.85;12.55;;;;;;;19.92;91.04;101695.16;5037096;28;20048;-66
2021/09/11 10:48:30;;;;;;;18.42;11.18;;;;;;;19.89;89.87;101695.31;5034884;28;20057;-66
2021/09/11 10:51:10;;;;;;;21.88;11.15;;;;;;;19.85;89.77;101692.88;5036106;28;20068;-66
2021/09/11 10:53:40;;;;;;;21.42;10.07;;;;;;;19.87;89.64;101701.78;5045036;28;20063;-65
2021/09/11 10:56:24;;;;;;;18.08;11.00;;;;;;;19.91;88.70;101698.81;5037059;28;20040;-65
2021/09/11 10:59:29;;;;;;;17.40;10.55;;;;;;;20.15;88.58;101704.63;5034920;28;20053;-65
2021/09/11 11:01:59;;;;;;;17.83;10.10;;;;;;;20.15;87.65;101691.09;5035896;28;20057;-65
2021/09/11 11:04:29;;;;;;;18.63;9.60;;;;;;;20.19;87.74;101699.91;5034870;28;20161;-65
2021/09/11 11:06:58;;;;;;;15.38;8.70;;;;;;;20.31;86.11;101687.47;5036055;28;20187;-65
2021/09/11 11:09:26;;;;;;;14.43;8.13;;;;;;;20.24;86.97;101691.50;5036104;28;20717;-65
2021/09/11 11:11:57;;;;;;;14.18;8.25;;;;;;;20.14;88.42;101702.00;5035938;28;20056;-65
2021/09/11 11:14:25;;;;;;;14.18;8.25;;;;;;;20.05;89.91;101705.28;5037735;28;20099;-65
2021/09/11 11:16:55;;;;;;;19.67;8.73;;;;;;;19.74;92.03;101707.00;5034816;28;20325;-66